createdAt,value
2022-11-07T00:01:32.115Z,94.20
2022-11-07T00:04:00.886Z,94.20
2022-11-07T00:06:38.162Z,94.20
2022-11-07T00:09:44.130Z,94.30
2022-11-07T00:12:59.904Z,94.30
2022-11-07T00:15:40.794Z,94.30
2022-11-07T00:21:08.657Z,94.30
2022-11-07T00:23:51.893Z,94.40
2022-11-07T00:26:19.309Z,94.50
2022-11-07T00:28:49.282Z,94.50
2022-11-07T00:31:17.325Z,94.60
2022-11-07T00:33:47.196Z,94.70
2022-11-07T00:36:26.519Z,94.60
2022-11-07T00:38:56.716Z,94.60
2022-11-07T00:41:24.726Z,94.60
2022-11-07T00:44:02.904Z,94.50
2022-11-07T00:46:30.125Z,94.50
2022-11-07T00:48:57.480Z,94.40
2022-11-07T00:51:38.659Z,94.40
2022-11-07T00:54:09.239Z,94.40
2022-11-07T00:57:12.278Z,94.40
2022-11-07T00:59:40.101Z,94.40
2022-11-07T01:02:09.510Z,94.40
2022-11-07T01:04:56.234Z,94.40
2022-11-07T01:07:23.412Z,94.40
2022-11-07T01:10:41.299Z,94.50
2022-11-07T01:13:13.659Z,94.60
2022-11-07T01:15:44.464Z,94.50
2022-11-07T01:18:14.227Z,94.60
2022-11-07T01:20:44.283Z,94.60
2022-11-07T01:23:11.769Z,94.60
2022-11-07T01:25:41.539Z,94.70
2022-11-07T01:28:12.748Z,94.70
2022-11-07T01:30:42.709Z,94.60
2022-11-07T01:33:13.514Z,94.60
2022-11-07T01:35:41.382Z,94.60
2022-11-07T01:38:11.596Z,94.60
2022-11-07T01:41:03.213Z,94.50
2022-11-07T01:43:53.868Z,94.50
2022-11-07T01:46:24.998Z,94.50
2022-11-07T01:50:40.851Z,94.50
2022-11-07T01:52:42.759Z,94.50
2022-11-07T01:55:38.445Z,94.50
2022-11-07T01:58:09.421Z,94.50
2022-11-07T02:00:37.500Z,94.50
2022-11-07T02:03:16.211Z,94.50
2022-11-07T02:05:55.080Z,94.60
2022-11-07T02:08:26.923Z,94.60
2022-11-07T02:10:54.660Z,94.60
2022-11-07T02:13:28.059Z,94.60
2022-11-07T02:16:06.023Z,94.60
2022-11-07T02:18:39.349Z,94.60
2022-11-07T02:21:47.910Z,94.60
2022-11-07T02:24:27.464Z,94.50
2022-11-07T02:27:01.873Z,94.60
2022-11-07T02:29:30.761Z,94.90
2022-11-07T02:32:11.055Z,94.60
2022-11-07T02:34:39.189Z,94.70
2022-11-07T02:37:26.949Z,94.70
2022-11-07T02:39:54.303Z,94.80
2022-11-07T02:42:22.178Z,94.70
2022-11-07T02:44:52.093Z,94.70
2022-11-07T02:47:19.628Z,94.80
2022-11-07T02:49:46.838Z,94.80
2022-11-07T02:52:14.245Z,94.70
2022-11-07T02:54:44.658Z,94.70
2022-11-07T02:57:14.470Z,94.70
2022-11-07T02:59:42.259Z,94.80
2022-11-07T03:02:10.485Z,94.90
2022-11-07T03:04:48.891Z,95.00
2022-11-07T03:07:16.784Z,95.00
2022-11-07T03:09:47.125Z,95.00
2022-11-07T03:12:14.449Z,95.00
2022-11-07T03:14:43.010Z,95.10
2022-11-07T03:17:12.089Z,95.10
2022-11-07T03:19:43.497Z,95.20
2022-11-07T03:22:11.183Z,95.20
2022-11-07T03:24:41.544Z,95.20
2022-11-07T03:27:18.985Z,95.20
2022-11-07T03:29:46.281Z,95.20
2022-11-07T03:32:16.517Z,95.20
2022-11-07T03:34:47.975Z,95.10
2022-11-07T03:37:17.959Z,95.10
2022-11-07T03:39:45.254Z,95.20
2022-11-07T03:42:12.393Z,95.10
2022-11-07T03:44:41.898Z,95.10
2022-11-07T03:47:12.480Z,95.10
2022-11-07T03:49:39.780Z,95.10
2022-11-07T03:52:09.594Z,95.10
2022-11-07T03:54:43.919Z,95.10
2022-11-07T03:57:11.439Z,95.00
2022-11-07T03:59:46.221Z,95.00
2022-11-07T04:02:15.976Z,95.00
2022-11-07T04:04:50.223Z,94.90
2022-11-07T04:07:27.092Z,94.90
2022-11-07T04:10:05.230Z,94.90
2022-11-07T04:12:56.273Z,94.90
2022-11-07T04:15:41.741Z,94.90
2022-11-07T04:18:11.759Z,94.90
2022-11-07T04:20:39.021Z,94.90
2022-11-07T04:23:07.105Z,95.00
2022-11-07T04:25:56.963Z,94.90
2022-11-07T04:28:24.598Z,95.00
2022-11-07T04:30:56.975Z,95.00
2022-11-07T04:33:24.269Z,95.00
2022-11-07T04:35:53.633Z,95.10
2022-11-07T04:38:23.366Z,95.10
2022-11-07T04:40:58.261Z,95.10
2022-11-07T04:43:27.494Z,95.00
2022-11-07T04:46:04.786Z,95.00
2022-11-07T04:48:34.294Z,95.00
2022-11-07T04:51:07.249Z,95.00
2022-11-07T04:53:38.620Z,95.00
2022-11-07T04:56:06.204Z,95.00
2022-11-07T04:58:34.629Z,94.90
2022-11-07T05:01:04.720Z,94.90
2022-11-07T05:03:33.499Z,94.80
2022-11-07T05:06:04.811Z,94.80
2022-11-07T05:08:35.036Z,94.80
2022-11-07T05:11:11.478Z,94.80
2022-11-07T05:13:38.596Z,94.90
2022-11-07T05:16:06.522Z,94.80
2022-11-07T05:18:33.681Z,95.10
2022-11-07T05:21:01.107Z,94.80
2022-11-07T05:23:33.747Z,94.80
2022-11-07T05:26:03.259Z,94.80
2022-11-07T05:28:38.710Z,94.80
2022-11-07T05:31:08.822Z,94.80
2022-11-07T05:33:39.252Z,94.80
2022-11-07T05:36:17.699Z,94.80
2022-11-07T05:38:47.834Z,94.70
2022-11-07T05:41:24.436Z,94.80
2022-11-07T05:43:51.549Z,94.80
2022-11-07T05:46:20.074Z,94.80
2022-11-07T05:48:47.480Z,94.80
2022-11-07T05:51:14.685Z,94.80
2022-11-07T05:53:46.715Z,94.80
2022-11-07T05:56:16.328Z,94.80
2022-11-07T05:58:43.709Z,94.80
2022-11-07T06:01:13.481Z,94.80
2022-11-07T06:03:40.902Z,94.80
2022-11-07T06:06:08.173Z,94.80
2022-11-07T06:08:36.587Z,94.90
2022-11-07T06:11:06.932Z,94.90
2022-11-07T06:13:36.391Z,94.90
2022-11-07T06:16:06.886Z,94.90
2022-11-07T06:18:41.553Z,94.90
2022-11-07T06:21:22.946Z,94.90
2022-11-07T06:23:54.499Z,94.90
2022-11-07T06:29:14.037Z,94.90
2022-11-07T06:31:48.887Z,94.90
2022-11-07T06:34:36.210Z,94.90
2022-11-07T06:37:03.674Z,94.90
2022-11-07T06:39:30.699Z,94.90
2022-11-07T06:41:57.875Z,94.90
2022-11-07T06:44:25.156Z,94.90
2022-11-07T06:46:52.312Z,94.90
2022-11-07T06:49:19.523Z,94.90
2022-11-07T06:51:48.088Z,94.90
2022-11-07T06:54:15.362Z,94.90
2022-11-07T06:56:44.702Z,94.90
2022-11-07T06:59:20.735Z,94.90
2022-11-07T07:01:50.070Z,94.90
2022-11-07T07:04:19.629Z,94.90
2022-11-07T07:06:46.665Z,94.90
2022-11-07T07:09:13.763Z,94.90
2022-11-07T07:11:42.757Z,94.90
2022-11-07T07:14:12.831Z,94.90
2022-11-07T07:16:40.114Z,94.80
2022-11-07T07:19:07.243Z,94.80
2022-11-07T07:21:35.164Z,94.80
2022-11-07T07:24:02.291Z,94.70
2022-11-07T07:26:33.190Z,94.70
2022-11-07T07:29:00.478Z,94.70
2022-11-07T07:31:34.174Z,94.70
2022-11-07T07:34:03.933Z,94.60
2022-11-07T07:36:33.184Z,94.60
2022-11-07T07:39:00.280Z,94.60
2022-11-07T07:41:27.567Z,94.60
2022-11-07T07:43:57.247Z,94.60
2022-11-07T07:46:24.535Z,94.60
2022-11-07T07:48:51.880Z,94.60
2022-11-07T07:51:22.144Z,94.60
2022-11-07T07:53:49.538Z,94.60
2022-11-07T07:56:17.876Z,94.50
2022-11-07T07:58:45.624Z,94.40
2022-11-07T08:01:12.738Z,94.40
2022-11-07T08:04:00.275Z,94.30
2022-11-07T08:06:27.048Z,94.30
2022-11-07T08:08:54.293Z,94.30
2022-11-07T08:11:21.553Z,94.20
2022-11-07T08:13:48.916Z,94.20
2022-11-07T08:16:16.195Z,94.20
2022-11-07T08:18:43.189Z,94.20
2022-11-07T08:21:10.488Z,94.10
2022-11-07T08:23:38.611Z,94.10
2022-11-07T08:26:06.307Z,94.10
2022-11-07T08:28:36.012Z,94.10
2022-11-07T08:31:08.972Z,94.10
2022-11-07T08:33:36.446Z,94.10
2022-11-07T08:36:05.339Z,94.10
2022-11-07T08:38:36.309Z,94.00
2022-11-07T08:41:04.664Z,93.90
2022-11-07T08:43:32.009Z,93.90
2022-11-07T08:45:59.145Z,93.70
2022-11-07T08:48:26.347Z,93.70
2022-11-07T08:50:54.885Z,93.60
2022-11-07T08:53:23.616Z,93.60
2022-11-07T08:55:50.943Z,93.50
2022-11-07T08:58:19.409Z,93.50
2022-11-07T09:00:48.740Z,93.40
2022-11-07T09:03:45.012Z,93.40
2022-11-07T09:06:05.668Z,93.40
2022-11-07T09:08:33.197Z,93.30
2022-11-07T09:11:05.205Z,93.30
2022-11-07T09:13:33.566Z,93.00
2022-11-07T09:16:02.540Z,93.10
2022-11-07T09:18:30.509Z,93.10
2022-11-07T09:20:58.875Z,93.20
2022-11-07T09:23:27.770Z,93.10
2022-11-07T09:25:55.317Z,93.10
2022-11-07T09:28:22.639Z,93.10
2022-11-07T09:30:57.037Z,93.00
2022-11-07T09:33:24.980Z,93.00
2022-11-07T09:35:55.029Z,93.10
2022-11-07T09:38:22.182Z,93.00
2022-11-07T09:41:06.395Z,93.00
2022-11-07T09:43:58.861Z,92.90
2022-11-07T09:46:44.495Z,92.90
2022-11-07T09:49:25.787Z,92.90
2022-11-07T09:51:59.523Z,92.90
2022-11-07T09:54:29.542Z,93.00
2022-11-07T09:56:59.557Z,92.90
2022-11-07T09:59:41.966Z,93.10
2022-11-07T10:02:19.948Z,92.80
2022-11-07T10:04:51.754Z,92.80
2022-11-07T10:07:21.538Z,92.80
2022-11-07T10:09:58.296Z,92.90
2022-11-07T10:12:28.146Z,92.90
2022-11-07T10:15:16.492Z,92.90
2022-11-07T10:17:58.693Z,92.90
2022-11-07T10:20:28.490Z,92.90
2022-11-07T10:23:12.391Z,92.90
2022-11-07T10:25:51.068Z,93.00
2022-11-07T10:28:20.780Z,93.00
2022-11-07T10:30:52.728Z,93.00
2022-11-07T10:33:42.780Z,93.00
2022-11-07T10:36:45.183Z,93.00
2022-11-07T10:39:17.920Z,93.10
2022-11-07T10:41:57.619Z,93.00
2022-11-07T10:44:29.213Z,93.10
2022-11-07T10:46:56.733Z,93.10
2022-11-07T10:49:25.136Z,93.00
2022-11-07T10:51:53.309Z,93.00
2022-11-07T10:54:27.937Z,93.00
2022-11-07T10:57:13.626Z,93.00
2022-11-07T10:59:45.731Z,93.00
2022-11-07T11:02:50.038Z,93.20
2022-11-07T11:05:42.114Z,92.80
2022-11-07T11:08:20.199Z,92.80
2022-11-07T11:10:49.014Z,92.60
2022-11-07T11:13:30.166Z,92.60
2022-11-07T11:16:05.293Z,92.50
2022-11-07T11:18:33.527Z,92.60
2022-11-07T11:21:06.104Z,92.50
2022-11-07T11:23:36.961Z,92.30
2022-11-07T11:26:08.946Z,92.20
2022-11-07T11:29:09.481Z,92.20
2022-11-07T11:31:37.555Z,92.20
2022-11-07T11:34:13.890Z,92.30
2022-11-07T11:36:43.197Z,92.30
2022-11-07T11:39:26.514Z,92.40
2022-11-07T11:41:58.264Z,92.50
2022-11-07T11:44:40.156Z,92.60
2022-11-07T11:47:30.315Z,92.50
2022-11-07T11:50:10.184Z,92.60
2022-11-07T11:52:37.294Z,92.60
2022-11-07T11:55:07.581Z,92.60
2022-11-07T11:57:40.753Z,92.50
2022-11-07T12:00:13.378Z,92.40
2022-11-07T12:03:04.004Z,92.30
2022-11-07T12:05:39.442Z,92.30
2022-11-07T12:08:26.204Z,92.30
2022-11-07T12:11:00.095Z,92.10
2022-11-07T12:13:45.328Z,92.20
2022-11-07T12:16:30.932Z,92.20
2022-11-07T12:19:19.068Z,92.20
2022-11-07T12:21:55.765Z,92.20
2022-11-07T12:24:30.423Z,92.10
2022-11-07T12:27:00.711Z,92.20
2022-11-07T12:29:30.711Z,92.20
2022-11-07T12:31:58.251Z,92.20
2022-11-07T12:34:30.845Z,92.20
2022-11-07T12:37:10.575Z,92.20
2022-11-07T12:39:56.586Z,92.10
2022-11-07T12:42:42.472Z,92.10
2022-11-07T12:45:34.004Z,92.20
2022-11-07T12:48:15.364Z,92.20
2022-11-07T12:51:05.471Z,92.20
2022-11-07T12:53:32.507Z,92.20
2022-11-07T12:56:06.045Z,92.20
2022-11-07T12:58:49.084Z,92.10
2022-11-07T13:01:22.499Z,92.10
2022-11-07T13:03:49.474Z,91.90
2022-11-07T13:06:22.409Z,91.90
2022-11-07T13:09:14.429Z,91.90
2022-11-07T13:12:01.618Z,91.80
2022-11-07T13:14:28.477Z,91.60
2022-11-07T13:16:58.396Z,91.40
2022-11-07T13:19:32.322Z,91.50
2022-11-07T13:22:03.535Z,91.50
2022-11-07T13:24:33.658Z,91.40
2022-11-07T13:27:00.812Z,91.30
2022-11-07T13:29:36.154Z,91.50
2022-11-07T13:32:16.055Z,91.20
2022-11-07T13:34:56.718Z,91.30
2022-11-07T13:37:28.810Z,91.30
2022-11-07T13:39:59.911Z,91.20
2022-11-07T13:42:28.336Z,91.30
2022-11-07T13:44:56.618Z,91.40
2022-11-07T13:47:28.030Z,91.40
2022-11-07T13:58:02.704Z,90.30
2022-11-07T14:00:33.155Z,90.40
2022-11-07T14:03:03.549Z,90.80
2022-11-07T14:05:35.101Z,91.10
2022-11-07T14:08:19.316Z,91.30
2022-11-07T14:10:49.436Z,91.30
2022-11-07T14:13:27.870Z,91.40
2022-11-07T14:16:00.599Z,91.40
2022-11-07T14:18:33.158Z,91.40
2022-11-07T14:21:01.589Z,91.30
2022-11-07T14:23:34.698Z,91.30
2022-11-07T14:26:16.335Z,91.20
2022-11-07T14:28:43.691Z,91.20
2022-11-07T14:31:26.212Z,91.20
2022-11-07T14:33:56.500Z,91.20
2022-11-07T14:36:24.022Z,91.20
2022-11-07T14:39:05.207Z,91.10
2022-11-07T14:41:34.202Z,90.80
2022-11-07T14:44:04.193Z,90.90
2022-11-07T14:46:31.672Z,90.80
2022-11-07T14:48:59.703Z,90.80
2022-11-07T14:51:29.334Z,90.80
2022-11-07T14:54:10.370Z,90.80
2022-11-07T14:56:42.112Z,90.90
2022-11-07T14:59:14.662Z,90.90
2022-11-07T15:01:57.108Z,91.00
2022-11-07T15:04:38.143Z,91.10
2022-11-07T15:07:20.566Z,91.10
2022-11-07T15:09:48.266Z,91.10
2022-11-07T15:12:20.958Z,91.10
2022-11-07T15:15:20.654Z,91.10
2022-11-07T15:17:57.166Z,91.00
2022-11-07T15:20:37.570Z,91.10
2022-11-07T15:23:45.342Z,91.20
2022-11-07T15:26:13.217Z,91.20
2022-11-07T15:28:46.889Z,91.30
2022-11-07T15:31:24.090Z,91.30
2022-11-07T15:33:53.134Z,91.40
2022-11-07T15:36:20.439Z,91.40
2022-11-07T15:38:49.825Z,91.50
2022-11-07T15:41:17.186Z,91.50
2022-11-07T15:44:04.890Z,91.50
2022-11-07T15:46:40.099Z,91.50
2022-11-07T15:49:24.821Z,91.60
2022-11-07T15:51:52.061Z,91.50
2022-11-07T15:54:19.124Z,91.50
2022-11-07T15:56:47.589Z,91.50
2022-11-07T15:59:36.669Z,91.50
2022-11-07T16:02:04.641Z,91.60
2022-11-07T16:04:35.300Z,91.60
2022-11-07T16:07:28.029Z,91.60
2022-11-07T16:09:55.261Z,91.60
2022-11-07T16:12:50.331Z,91.70
2022-11-07T16:15:31.652Z,91.70
2022-11-07T16:18:18.702Z,91.80
2022-11-07T16:20:49.453Z,91.80
2022-11-07T16:23:19.270Z,91.80
2022-11-07T16:25:52.774Z,91.80
2022-11-07T16:28:34.872Z,91.90
2022-11-07T16:31:02.839Z,92.00
2022-11-07T16:33:39.903Z,92.30
2022-11-07T16:36:23.716Z,92.10
2022-11-07T16:38:59.767Z,92.10
2022-11-07T16:41:27.876Z,92.10
2022-11-07T16:43:54.998Z,92.10
2022-11-07T16:46:25.453Z,92.20
2022-11-07T16:49:25.498Z,92.20
2022-11-07T16:56:30.975Z,92.30
2022-11-07T16:59:10.146Z,92.40
2022-11-07T17:01:52.217Z,92.40
2022-11-07T17:04:24.209Z,92.50
2022-11-07T17:07:30.362Z,92.50
2022-11-07T17:10:45.440Z,92.50
2022-11-07T17:13:12.752Z,92.50
2022-11-07T17:15:41.062Z,92.50
2022-11-07T17:18:38.259Z,92.50
2022-11-07T17:21:08.046Z,92.50
2022-11-07T17:23:41.199Z,92.60
2022-11-07T17:26:09.789Z,92.60
2022-11-07T17:28:36.893Z,92.60
2022-11-07T17:31:03.976Z,92.50
2022-11-07T17:33:31.671Z,92.50
2022-11-07T17:36:23.686Z,92.50
2022-11-07T17:39:29.367Z,92.50
2022-11-07T17:41:57.157Z,92.50
2022-11-07T17:44:38.507Z,92.60
2022-11-07T17:52:15.196Z,92.50
2022-11-07T17:54:47.834Z,92.50
2022-11-07T17:57:21.928Z,92.50
2022-11-07T17:59:49.630Z,92.40
2022-11-07T18:02:25.373Z,92.40
2022-11-07T18:05:04.017Z,92.40
2022-11-07T18:07:44.104Z,92.50
2022-11-07T18:10:52.658Z,92.40
2022-11-07T18:13:32.889Z,92.40
2022-11-07T18:16:12.131Z,92.40
2022-11-07T18:18:55.614Z,92.30
2022-11-07T18:21:25.969Z,92.40
2022-11-07T18:23:53.591Z,92.40
2022-11-07T18:26:39.017Z,92.40
2022-11-07T18:29:32.087Z,92.40
2022-11-07T18:31:59.340Z,92.40
2022-11-07T18:34:26.535Z,92.40
2022-11-07T18:37:31.938Z,92.30
2022-11-07T18:39:58.624Z,92.30
2022-11-07T18:42:45.749Z,92.40
2022-11-07T18:52:33.923Z,92.40
2022-11-07T18:55:02.858Z,92.40
2022-11-07T18:57:48.132Z,92.50
2022-11-07T19:00:18.252Z,92.50
2022-11-07T19:02:45.337Z,92.50
2022-11-07T19:05:12.462Z,92.60
2022-11-07T19:07:55.648Z,92.60
2022-11-07T19:14:06.682Z,92.50
2022-11-07T19:16:41.251Z,92.60
2022-11-07T19:19:16.668Z,92.60
2022-11-07T19:21:44.113Z,92.60
2022-11-07T19:24:14.434Z,92.70
2022-11-07T19:26:46.785Z,92.70
2022-11-07T19:30:24.441Z,92.80
2022-11-07T19:32:52.086Z,92.80
2022-11-07T19:35:22.034Z,92.80
2022-11-07T19:37:49.434Z,93.00
2022-11-07T19:40:16.815Z,92.70
2022-11-07T19:42:53.150Z,92.70
2022-11-07T19:45:44.572Z,92.70
2022-11-07T19:48:12.129Z,92.60
2022-11-07T19:50:39.253Z,92.60
2022-11-07T19:53:07.091Z,92.60
2022-11-07T19:59:54.185Z,92.50
2022-11-07T20:02:33.021Z,92.50
2022-11-07T20:05:24.972Z,92.60
2022-11-07T20:12:41.704Z,92.60
2022-11-07T20:15:45.754Z,92.70
2022-11-07T20:18:12.803Z,92.80
2022-11-07T20:20:39.906Z,92.80
2022-11-07T20:23:06.895Z,92.90
2022-11-07T20:25:34.159Z,92.90
2022-11-07T20:28:01.556Z,93.00
2022-11-07T20:30:49.719Z,93.00
2022-11-07T20:33:21.377Z,93.00
2022-11-07T20:35:59.547Z,93.00
2022-11-07T20:38:28.280Z,93.00
2022-11-07T20:40:55.933Z,93.10
2022-11-07T20:43:23.217Z,93.10
2022-11-07T20:46:13.255Z,93.20
2022-11-07T20:48:39.427Z,93.20
2022-11-07T20:51:16.087Z,93.20
2022-11-07T20:53:48.662Z,93.10
2022-11-07T20:56:18.439Z,93.10
2022-11-07T20:58:46.572Z,93.10
2022-11-07T21:01:17.559Z,93.00
2022-11-07T21:03:45.041Z,92.90
2022-11-07T21:06:12.280Z,92.90
2022-11-07T21:08:44.065Z,92.80
2022-11-07T21:11:15.512Z,92.80
2022-11-07T21:13:52.704Z,92.80
2022-11-07T21:16:28.980Z,92.80
2022-11-07T21:18:59.053Z,92.70
2022-11-07T21:21:28.394Z,92.70
2022-11-07T21:24:00.651Z,92.70
2022-11-07T21:26:41.704Z,92.70
2022-11-07T21:29:11.003Z,92.70
2022-11-07T21:31:43.611Z,92.70
2022-11-07T21:34:13.166Z,92.70
2022-11-07T21:36:40.787Z,92.70
2022-11-07T21:39:08.099Z,92.70
2022-11-07T21:41:35.999Z,92.70
2022-11-07T21:44:09.501Z,92.60
2022-11-07T21:46:36.739Z,92.60
2022-11-07T21:49:05.315Z,92.70
2022-11-07T21:51:34.659Z,92.70
2022-11-07T21:54:03.792Z,92.70
2022-11-07T21:56:36.390Z,92.70
2022-11-07T21:59:12.490Z,92.60
2022-11-07T22:01:40.774Z,92.60
2022-11-07T22:04:13.790Z,92.60
2022-11-07T22:06:44.725Z,92.50
2022-11-07T22:09:21.138Z,92.50
2022-11-07T22:11:50.936Z,92.50
2022-11-07T22:14:24.120Z,92.60
2022-11-07T22:16:54.979Z,92.50
2022-11-07T22:19:22.016Z,92.50
2022-11-07T22:22:13.025Z,92.50
2022-11-07T22:24:41.427Z,92.40
2022-11-07T22:27:08.965Z,92.40
2022-11-07T22:29:44.573Z,92.40
2022-11-07T22:32:28.463Z,92.40
2022-11-07T22:34:55.995Z,92.40
2022-11-07T22:37:23.098Z,92.30
2022-11-07T22:39:50.266Z,92.40
2022-11-07T22:42:22.582Z,92.40
2022-11-07T22:45:02.084Z,92.40
2022-11-07T22:47:31.920Z,92.30
2022-11-07T22:50:01.331Z,92.40
2022-11-07T22:52:28.467Z,92.50
2022-11-07T22:54:58.772Z,92.50
2022-11-07T22:57:26.149Z,92.60
2022-11-07T22:59:53.549Z,92.60
2022-11-07T23:02:20.967Z,92.70
2022-11-07T23:04:50.481Z,92.70
2022-11-07T23:07:17.589Z,92.70
2022-11-07T23:09:44.869Z,92.70
2022-11-07T23:12:14.402Z,92.70
2022-11-07T23:14:45.877Z,92.80
2022-11-07T23:17:13.408Z,92.80
2022-11-07T23:19:40.633Z,92.90
2022-11-07T23:22:07.628Z,92.80
2022-11-07T23:24:34.631Z,93.20
2022-11-07T23:27:04.289Z,92.90
2022-11-07T23:29:31.395Z,92.90
2022-11-07T23:32:16.216Z,92.90
2022-11-07T23:34:43.767Z,92.80
2022-11-07T23:37:18.198Z,92.90
2022-11-07T23:39:51.069Z,92.90
2022-11-07T23:42:26.035Z,93.00
2022-11-07T23:45:16.686Z,93.10
2022-11-07T23:48:07.805Z,93.20
2022-11-07T23:50:55.441Z,93.20
2022-11-07T23:54:02.571Z,93.30
2022-11-07T23:56:29.810Z,93.30
2022-11-07T23:59:17.547Z,93.40
